Time;durP1;ratioP1;P1;durP2;ratioP2;P2;SDS_P1;SDS_P2;PMS_P1;PMS_P2;Temp;Humidity;BMP_temperature;BMP_pressure;BME280_temperature;BME280_humidity;BME280_pressure;Samples;Min_cycle;Max_cycle;Signal;HPM_P1;HPM_P2
2023/10/26 00:02:06;;;;;;;2.80;0.50;;;;;;;;;;5032244;28;20061;-84
2023/10/26 00:04:31;;;;;;;0.30;0.30;;;;;;;;;;5028193;28;20041;-85
2023/10/26 00:06:57;;;;;;;0.30;0.30;;;;;;;;;;5028192;28;20091;-83
2023/10/26 00:09:22;;;;;;;0.30;0.30;;;;;;;;;;5028818;28;20038;-82
2023/10/26 00:11:49;;;;;;;0.28;0.28;;;;;;;;;;5025640;28;20020;-84
2023/10/26 00:14:15;;;;;;;3.20;0.30;;;;;;;;;;5023632;28;20033;-84
2023/10/26 00:16:40;;;;;;;0.30;0.30;;;;;;;;;;5029022;28;20038;-85
2023/10/26 00:19:05;;;;;;;2.95;0.30;;;;;;;;;;5028446;28;20502;-84
2023/10/26 00:21:30;;;;;;;0.30;0.30;;;;;;;;;;5028870;28;20030;-83
2023/10/26 00:23:56;;;;;;;0.32;0.32;;;;;;;;;;5017992;28;20432;-83
2023/10/26 00:26:21;;;;;;;2.55;0.35;;;;;;;;;;5018029;28;20060;-83
2023/10/26 00:28:46;;;;;;;0.30;0.30;;;;;;;;;;5019967;28;20516;-83
2023/10/26 00:31:11;;;;;;;0.30;0.30;;;;;;;;;;5026942;28;20498;-83
2023/10/26 00:33:37;;;;;;;0.30;0.30;;;;;;;;;;5027072;28;20111;-84
2023/10/26 00:36:02;;;;;;;0.20;0.20;;;;;;;;;;5029923;28;20017;-84
2023/10/26 00:38:27;;;;;;;0.43;0.30;;;;;;;;;;5027773;28;20057;-84
2023/10/26 00:40:53;;;;;;;0.28;0.28;;;;;;;;;;5025717;28;20044;-82
2023/10/26 00:43:22;;;;;;;0.30;0.30;;;;;;;;;;5027310;28;20551;-84
2023/10/26 00:45:51;;;;;;;0.30;0.30;;;;;;;;;;5022896;28;20042;-84
2023/10/26 00:48:17;;;;;;;0.52;0.47;;;;;;;;;;5031565;28;20505;-80
2023/10/26 00:50:42;;;;;;;0.40;0.40;;;;;;;;;;5039153;28;20063;-83
2023/10/26 00:53:10;;;;;;;0.10;0.10;;;;;;;;;;5038436;28;20025;-83
2023/10/26 00:55:36;;;;;;;0.25;0.25;;;;;;;;;;5034044;28;20377;-83
2023/10/26 00:58:01;;;;;;;0.30;0.30;;;;;;;;;;5033282;28;20343;-82
2023/10/26 01:00:27;;;;;;;0.30;0.30;;;;;;;;;;5033310;28;20113;-82
2023/10/26 01:02:54;;;;;;;0.20;0.20;;;;;;;;;;5031275;28;20053;-79
2023/10/26 01:05:19;;;;;;;0.20;0.20;;;;;;;;;;5038440;28;20037;-80
2023/10/26 01:07:44;;;;;;;0.30;0.30;;;;;;;;;;5032784;28;20091;-81
2023/10/26 01:10:10;;;;;;;0.25;0.25;;;;;;;;;;5034195;28;20103;-83
2023/10/26 01:12:36;;;;;;;0.20;0.20;;;;;;;;;;5035622;28;20040;-83
2023/10/26 01:15:01;;;;;;;0.22;0.22;;;;;;;;;;5037788;28;20014;-83
2023/10/26 01:17:27;;;;;;;0.30;0.30;;;;;;;;;;5034040;28;20033;-81
2023/10/26 01:19:53;;;;;;;0.20;0.20;;;;;;;;;;5029146;28;20049;-81
2023/10/26 01:22:18;;;;;;;0.32;0.30;;;;;;;;;;5028887;28;20923;-82
2023/10/26 01:24:44;;;;;;;0.20;0.20;;;;;;;;;;5027750;28;20053;-83
2023/10/26 01:27:09;;;;;;;0.20;0.20;;;;;;;;;;5023418;28;20061;-80
2023/10/26 01:29:34;;;;;;;0.45;0.35;;;;;;;;;;5025119;28;20021;-81
2023/10/26 01:32:00;;;;;;;0.63;0.28;;;;;;;;;;5021895;28;20444;-82
2023/10/26 01:34:26;;;;;;;0.22;0.22;;;;;;;;;;5024345;28;20084;-81
2023/10/26 01:36:51;;;;;;;0.32;0.32;;;;;;;;;;5027503;28;20120;-81
2023/10/26 01:39:17;;;;;;;0.38;0.30;;;;;;;;;;5028441;28;20869;-82
2023/10/26 01:41:44;;;;;;;0.25;0.25;;;;;;;;;;5034985;28;20041;-82
2023/10/26 01:44:09;;;;;;;0.20;0.20;;;;;;;;;;5036855;28;20385;-81
2023/10/26 01:46:34;;;;;;;0.20;0.20;;;;;;;;;;5034732;28;20036;-82
2023/10/26 01:49:03;;;;;;;0.30;0.30;;;;;;;;;;5032100;28;20044;-80
2023/10/26 01:51:29;;;;;;;0.30;0.30;;;;;;;;;;5035927;28;21231;-82
2023/10/26 01:53:54;;;;;;;0.20;0.20;;;;;;;;;;5028850;28;20022;-80
2023/10/26 01:56:19;;;;;;;0.40;0.40;;;;;;;;;;5032178;28;20494;-82
2023/10/26 01:58:45;;;;;;;0.30;0.30;;;;;;;;;;5035072;28;20037;-82
2023/10/26 02:01:10;;;;;;;0.30;0.30;;;;;;;;;;5023036;28;20193;-83
2023/10/26 02:03:36;;;;;;;0.55;0.40;;;;;;;;;;5024046;28;20033;-83
2023/10/26 02:06:03;;;;;;;0.30;0.30;;;;;;;;;;5026628;28;20510;-80
2023/10/26 02:08:28;;;;;;;1.52;0.40;;;;;;;;;;5056335;23;20076;-81
2023/10/26 02:10:53;;;;;;;0.30;0.30;;;;;;;;;;5035704;28;20097;-81
2023/10/26 02:13:19;;;;;;;0.13;0.13;;;;;;;;;;5035791;28;20047;-80
2023/10/26 02:15:44;;;;;;;0.32;0.30;;;;;;;;;;5034264;28;20037;-80
2023/10/26 02:18:09;;;;;;;0.30;0.30;;;;;;;;;;5036117;28;20120;-79
2023/10/26 02:20:35;;;;;;;0.20;0.20;;;;;;;;;;5040078;28;20021;-80
2023/10/26 02:23:00;;;;;;;0.20;0.20;;;;;;;;;;5053244;28;20044;-80
2023/10/26 02:25:26;;;;;;;0.20;0.20;;;;;;;;;;5058844;28;20499;-80
2023/10/26 02:27:57;;;;;;;0.22;0.22;;;;;;;;;;5057296;28;20136;-80
2023/10/26 02:30:23;;;;;;;0.30;0.30;;;;;;;;;;5059193;28;20032;-80
2023/10/26 02:32:48;;;;;;;0.17;0.17;;;;;;;;;;5057662;28;20031;-78
2023/10/26 02:35:15;;;;;;;0.30;0.30;;;;;;;;;;5058366;28;20040;-79
2023/10/26 02:37:40;;;;;;;0.30;0.30;;;;;;;;;;5058086;28;20048;-80
2023/10/26 02:40:08;;;;;;;0.20;0.20;;;;;;;;;;5059415;28;20033;-81
2023/10/26 02:42:34;;;;;;;2.30;0.30;;;;;;;;;;5056981;28;20029;-80
2023/10/26 02:44:59;;;;;;;0.20;0.20;;;;;;;;;;5059638;28;20504;-79
2023/10/26 02:47:25;;;;;;;0.20;0.20;;;;;;;;;;5059448;28;20029;-78
2023/10/26 02:49:50;;;;;;;0.20;0.20;;;;;;;;;;5058998;28;20044;-80
2023/10/26 02:52:15;;;;;;;0.35;0.30;;;;;;;;;;5057261;28;20028;-79
2023/10/26 02:54:41;;;;;;;0.32;0.32;;;;;;;;;;5058447;28;20029;-80
2023/10/26 02:57:06;;;;;;;0.30;0.30;;;;;;;;;;5058693;28;20484;-80
2023/10/26 02:59:31;;;;;;;0.30;0.30;;;;;;;;;;5058354;28;20044;-77
2023/10/26 03:01:57;;;;;;;0.20;0.20;;;;;;;;;;5058078;28;20029;-79
2023/10/26 03:04:22;;;;;;;0.20;0.20;;;;;;;;;;5056900;28;20372;-79
2023/10/26 03:06:48;;;;;;;0.30;0.30;;;;;;;;;;5056925;28;20039;-79
2023/10/26 03:09:13;;;;;;;0.65;0.32;;;;;;;;;;5056638;28;20109;-80
2023/10/26 03:11:39;;;;;;;0.28;0.28;;;;;;;;;;5056356;28;20096;-81
2023/10/26 03:14:05;;;;;;;0.25;0.25;;;;;;;;;;5056933;28;20125;-80
2023/10/26 03:16:32;;;;;;;0.80;0.40;;;;;;;;;;5056655;28;20082;-79
2023/10/26 03:18:57;;;;;;;0.20;0.20;;;;;;;;;;5056177;28;20032;-79
2023/10/26 03:21:23;;;;;;;0.30;0.30;;;;;;;;;;5043290;28;20516;-78
2023/10/26 03:23:52;;;;;;;0.40;0.32;;;;;;;;;;5044832;28;20028;-79
2023/10/26 03:26:21;;;;;;;1.30;0.45;;;;;;;;;;5058356;28;20036;-79
2023/10/26 03:28:50;;;;;;;0.20;0.20;;;;;;;;;;5057527;28;20029;-80
2023/10/26 03:31:16;;;;;;;0.30;0.30;;;;;;;;;;5056026;28;20037;-78
2023/10/26 03:33:41;;;;;;;0.60;0.20;;;;;;;;;;5048371;28;20033;-77
2023/10/26 03:36:14;;;;;;;0.28;0.28;;;;;;;;;;5034572;28;20381;-80
2023/10/26 03:38:40;;;;;;;0.40;0.30;;;;;;;;;;5035635;28;20120;-77
2023/10/26 03:41:06;;;;;;;0.20;0.20;;;;;;;;;;5035218;28;20073;-80
2023/10/26 03:43:31;;;;;;;0.40;0.40;;;;;;;;;;5034610;28;20041;-79
2023/10/26 03:45:56;;;;;;;0.32;0.32;;;;;;;;;;5035631;28;20057;-78
2023/10/26 03:48:22;;;;;;;0.30;0.30;;;;;;;;;;5036296;28;20061;-78
2023/10/26 03:50:47;;;;;;;2.92;0.20;;;;;;;;;;5035626;28;20025;-80
2023/10/26 03:53:12;;;;;;;0.20;0.20;;;;;;;;;;5034681;28;20037;-80
2023/10/26 03:55:38;;;;;;;1.27;0.40;;;;;;;;;;5034738;28;20037;-80
2023/10/26 03:58:03;;;;;;;0.25;0.25;;;;;;;;;;5035253;28;20160;-80
2023/10/26 04:00:28;;;;;;;0.40;0.40;;;;;;;;;;5036164;28;20041;-79
2023/10/26 04:02:54;;;;;;;0.22;0.22;;;;;;;;;;5034934;28;20021;-79
2023/10/26 04:05:19;;;;;;;0.38;0.30;;;;;;;;;;5035357;28;20033;-79
2023/10/26 04:07:44;;;;;;;0.30;0.30;;;;;;;;;;5033817;28;20639;-80
2023/10/26 04:10:10;;;;;;;0.35;0.35;;;;;;;;;;5034005;28;20060;-81
2023/10/26 04:12:35;;;;;;;0.80;0.52;;;;;;;;;;5034984;28;20041;-80
2023/10/26 04:15:01;;;;;;;0.30;0.30;;;;;;;;;;5035998;28;20112;-79
2023/10/26 04:17:26;;;;;;;0.30;0.30;;;;;;;;;;5034832;28;20092;-81
2023/10/26 04:19:52;;;;;;;0.30;0.30;;;;;;;;;;5033797;28;20029;-79
2023/10/26 04:22:17;;;;;;;0.47;0.38;;;;;;;;;;5033454;28;20226;-80
2023/10/26 04:24:42;;;;;;;0.20;0.20;;;;;;;;;;5033115;28;20033;-79
2023/10/26 04:27:08;;;;;;;0.20;0.20;;;;;;;;;;5034827;28;20048;-79
2023/10/26 04:29:33;;;;;;;0.32;0.32;;;;;;;;;;5035559;28;20037;-80
2023/10/26 04:31:58;;;;;;;0.30;0.30;;;;;;;;;;5033056;28;20107;-79
2023/10/26 04:34:24;;;;;;;1.15;0.38;;;;;;;;;;5032583;28;20129;-79
2023/10/26 04:36:49;;;;;;;0.50;0.30;;;;;;;;;;5032640;28;20033;-79
2023/10/26 04:39:15;;;;;;;1.25;0.47;;;;;;;;;;5034206;28;20030;-79
2023/10/26 04:41:41;;;;;;;0.35;0.35;;;;;;;;;;5031736;28;20032;-79
2023/10/26 04:44:06;;;;;;;0.30;0.30;;;;;;;;;;5033042;28;20026;-79
2023/10/26 04:46:32;;;;;;;0.30;0.30;;;;;;;;;;5034099;28;20045;-79
2023/10/26 04:48:57;;;;;;;0.50;0.38;;;;;;;;;;5036073;28;20037;-79
2023/10/26 04:51:23;;;;;;;0.30;0.30;;;;;;;;;;5041620;28;20045;-83
2023/10/26 04:53:49;;;;;;;0.30;0.30;;;;;;;;;;5041933;28;20094;-79
2023/10/26 04:56:14;;;;;;;1.80;0.38;;;;;;;;;;5039140;28;20045;-82
2023/10/26 04:58:40;;;;;;;0.20;0.20;;;;;;;;;;5038657;28;20056;-79
2023/10/26 05:01:05;;;;;;;0.38;0.38;;;;;;;;;;5033529;28;20457;-80
2023/10/26 05:03:31;;;;;;;0.38;0.30;;;;;;;;;;5034962;28;20056;-79
2023/10/26 05:05:56;;;;;;;0.30;0.30;;;;;;;;;;5033593;28;20029;-80
2023/10/26 05:08:22;;;;;;;0.30;0.30;;;;;;;;;;5027480;28;20033;-80
2023/10/26 05:10:47;;;;;;;0.35;0.35;;;;;;;;;;5041408;28;20045;-80
2023/10/26 05:13:12;;;;;;;0.25;0.25;;;;;;;;;;5039704;28;20405;-80
2023/10/26 05:15:38;;;;;;;0.40;0.40;;;;;;;;;;5035277;28;20566;-81
2023/10/26 05:18:03;;;;;;;0.80;0.40;;;;;;;;;;5053107;28;20025;-80
2023/10/26 05:20:30;;;;;;;0.77;0.50;;;;;;;;;;5038402;28;20026;-81
2023/10/26 05:22:56;;;;;;;0.57;0.40;;;;;;;;;;5037632;28;20075;-82
2023/10/26 05:25:21;;;;;;;0.38;0.38;;;;;;;;;;5037718;28;20033;-81
2023/10/26 05:27:46;;;;;;;0.28;0.28;;;;;;;;;;5037386;28;20036;-82
2023/10/26 05:30:12;;;;;;;0.70;0.70;;;;;;;;;;5035559;28;20492;-81
2023/10/26 05:32:38;;;;;;;0.40;0.40;;;;;;;;;;5037663;28;20024;-82
2023/10/26 05:35:05;;;;;;;0.65;0.65;;;;;;;;;;5035210;28;20038;-81
2023/10/26 05:37:31;;;;;;;0.55;0.55;;;;;;;;;;5036012;28;20038;-81
2023/10/26 05:39:56;;;;;;;0.60;0.60;;;;;;;;;;5035013;28;20117;-81
2023/10/26 05:42:21;;;;;;;0.60;0.60;;;;;;;;;;5035675;28;20026;-81
2023/10/26 05:44:47;;;;;;;0.95;0.90;;;;;;;;;;5038203;28;20025;-81
2023/10/26 05:47:12;;;;;;;0.77;0.77;;;;;;;;;;5037045;28;20037;-81
2023/10/26 05:49:37;;;;;;;1.05;0.80;;;;;;;;;;5037418;28;20097;-82
2023/10/26 05:52:03;;;;;;;1.38;0.65;;;;;;;;;;5035989;28;20453;-82
2023/10/26 05:54:29;;;;;;;1.38;0.65;;;;;;;;;;5036604;28;20040;-81
2023/10/26 05:56:54;;;;;;;0.50;0.50;;;;;;;;;;5036832;28;20017;-82
2023/10/26 05:59:20;;;;;;;2.72;0.68;;;;;;;;;;5035868;28;20438;-82
2023/10/26 06:01:45;;;;;;;0.60;0.60;;;;;;;;;;5036364;28;20056;-81
2023/10/26 06:04:10;;;;;;;1.25;0.95;;;;;;;;;;5037172;28;20128;-81
2023/10/26 06:06:36;;;;;;;1.48;0.90;;;;;;;;;;5035221;28;20420;-81
2023/10/26 06:09:01;;;;;;;0.75;0.60;;;;;;;;;;5036556;28;20032;-81
2023/10/26 06:11:27;;;;;;;0.60;0.60;;;;;;;;;;5035928;28;20037;-82
2023/10/26 06:13:55;;;;;;;0.60;0.60;;;;;;;;;;5037470;28;20051;-81
2023/10/26 06:16:20;;;;;;;0.40;0.40;;;;;;;;;;5036010;28;20042;-81
2023/10/26 06:18:46;;;;;;;0.20;0.20;;;;;;;;;;5037133;28;20033;-82
2023/10/26 06:21:13;;;;;;;0.60;0.60;;;;;;;;;;5036035;28;20030;-81
2023/10/26 06:23:38;;;;;;;0.55;0.55;;;;;;;;;;5036554;28;20036;-81
2023/10/26 06:26:04;;;;;;;1.75;0.50;;;;;;;;;;5036773;28;20038;-81
2023/10/26 06:28:29;;;;;;;0.30;0.30;;;;;;;;;;5035349;28;20091;-79
2023/10/26 06:30:56;;;;;;;0.30;0.30;;;;;;;;;;5033463;28;20056;-79
2023/10/26 06:33:21;;;;;;;0.50;0.50;;;;;;;;;;5032602;28;20033;-80
2023/10/26 06:35:48;;;;;;;0.40;0.40;;;;;;;;;;5034598;28;20032;-79
2023/10/26 06:38:14;;;;;;;0.55;0.43;;;;;;;;;;5033049;28;20037;-79
2023/10/26 06:40:39;;;;;;;0.50;0.50;;;;;;;;;;5033161;28;20041;-79
2023/10/26 06:43:04;;;;;;;1.17;0.50;;;;;;;;;;5033742;28;20397;-80
2023/10/26 06:45:30;;;;;;;0.50;0.50;;;;;;;;;;5034599;28;20489;-81
2023/10/26 06:47:55;;;;;;;0.47;0.45;;;;;;;;;;5033827;28;20025;-80
2023/10/26 06:50:22;;;;;;;4.72;1.10;;;;;;;;;;5034764;28;20068;-81
2023/10/26 06:52:47;;;;;;;0.90;0.90;;;;;;;;;;5041455;28;20065;-79
2023/10/26 06:55:16;;;;;;;3.22;1.98;;;;;;;;;;5047512;28;20124;-79
2023/10/26 06:57:42;;;;;;;1.40;1.30;;;;;;;;;;5041451;28;20060;-81
2023/10/26 07:00:08;;;;;;;3.22;1.00;;;;;;;;;;5032991;28;20124;-81
2023/10/26 07:02:33;;;;;;;2.70;0.80;;;;;;;;;;5034683;28;20458;-81
2023/10/26 07:04:59;;;;;;;1.13;1.13;;;;;;;;;;5034841;28;20032;-81
2023/10/26 07:07:25;;;;;;;4.63;1.20;;;;;;;;;;5037124;28;20041;-80
2023/10/26 07:09:51;;;;;;;1.30;1.20;;;;;;;;;;5038435;28;20037;-81
2023/10/26 07:12:17;;;;;;;0.90;0.90;;;;;;;;;;5036961;28;20032;-81
2023/10/26 07:14:42;;;;;;;3.05;0.60;;;;;;;;;;5038245;28;20108;-80
2023/10/26 07:17:07;;;;;;;0.50;0.50;;;;;;;;;;5036891;28;20313;-81
2023/10/26 07:19:33;;;;;;;0.70;0.70;;;;;;;;;;5036383;28;20060;-79
2023/10/26 07:21:58;;;;;;;0.70;0.70;;;;;;;;;;5036224;28;20038;-81
2023/10/26 07:24:23;;;;;;;1.75;1.35;;;;;;;;;;5038357;28;20049;-80
2023/10/26 07:26:49;;;;;;;6.78;3.17;;;;;;;;;;5033177;28;20053;-81
2023/10/26 07:29:15;;;;;;;4.55;1.50;;;;;;;;;;5036540;28;20041;-81
2023/10/26 07:31:40;;;;;;;3.38;1.77;;;;;;;;;;5033964;28;20044;-80
2023/10/26 07:34:05;;;;;;;4.40;2.53;;;;;;;;;;5035250;28;20044;-79
2023/10/26 07:36:31;;;;;;;1.65;1.55;;;;;;;;;;5047217;28;20037;-81
2023/10/26 07:38:58;;;;;;;1.48;1.20;;;;;;;;;;5045115;28;20037;-78
2023/10/26 07:41:27;;;;;;;1.15;1.00;;;;;;;;;;5041996;28;20128;-80
2023/10/26 07:43:52;;;;;;;1.02;1.02;;;;;;;;;;5047036;28;20033;-79
2023/10/26 07:46:17;;;;;;;0.95;0.95;;;;;;;;;;5045216;28;20043;-80
2023/10/26 07:48:42;;;;;;;1.15;0.90;;;;;;;;;;5046136;28;20041;-79
2023/10/26 07:51:08;;;;;;;1.45;1.10;;;;;;;;;;5046635;28;20106;-79
2023/10/26 07:53:33;;;;;;;0.90;0.90;;;;;;;;;;5038748;28;20029;-81
2023/10/26 07:55:59;;;;;;;0.90;0.90;;;;;;;;;;5037353;28;20039;-82
2023/10/26 07:58:25;;;;;;;3.33;1.15;;;;;;;;;;5038342;28;20044;-81
2023/10/26 08:00:51;;;;;;;5.93;1.02;;;;;;;;;;5036774;28;20373;-80
2023/10/26 08:03:16;;;;;;;1.15;1.00;;;;;;;;;;5047684;28;20017;-80
2023/10/26 08:05:42;;;;;;;3.53;1.10;;;;;;;;;;5044034;28;20075;-80
2023/10/26 08:08:07;;;;;;;1.17;1.17;;;;;;;;;;5044991;28;20446;-78
2023/10/26 08:10:36;;;;;;;0.68;0.68;;;;;;;;;;5045134;28;20033;-81
2023/10/26 08:13:03;;;;;;;0.90;0.90;;;;;;;;;;5046821;28;20048;-81
2023/10/26 08:15:28;;;;;;;4.43;1.02;;;;;;;;;;5041236;28;20055;-79
2023/10/26 08:17:54;;;;;;;1.55;1.00;;;;;;;;;;5049639;28;20056;-79
2023/10/26 08:20:19;;;;;;;1.40;1.30;;;;;;;;;;5034545;28;20037;-80
2023/10/26 08:22:45;;;;;;;9.50;1.88;;;;;;;;;;5034806;28;20033;-80
2023/10/26 08:25:10;;;;;;;2.33;1.30;;;;;;;;;;5034350;28;20064;-80
2023/10/26 08:27:35;;;;;;;1.20;1.20;;;;;;;;;;5036651;28;20030;-80
2023/10/26 08:30:02;;;;;;;1.85;1.00;;;;;;;;;;5043644;28;20555;-80
2023/10/26 08:32:27;;;;;;;0.80;0.80;;;;;;;;;;5045871;28;20037;-79
2023/10/26 08:34:53;;;;;;;0.95;0.95;;;;;;;;;;5046732;28;20060;-79
2023/10/26 08:37:18;;;;;;;1.17;0.85;;;;;;;;;;5044840;28;20037;-81
2023/10/26 08:39:43;;;;;;;0.90;0.90;;;;;;;;;;5045109;28;20112;-78
2023/10/26 08:42:09;;;;;;;0.90;0.90;;;;;;;;;;5042773;28;20022;-79
2023/10/26 08:44:34;;;;;;;1.80;1.25;;;;;;;;;;5048482;28;20017;-80
2023/10/26 08:47:03;;;;;;;2.30;1.10;;;;;;;;;;5043395;28;20029;-80
2023/10/26 08:49:32;;;;;;;0.90;0.90;;;;;;;;;;5035418;28;20043;-79
2023/10/26 08:51:58;;;;;;;1.23;1.00;;;;;;;;;;5033328;28;20394;-79
2023/10/26 08:54:26;;;;;;;1.40;0.93;;;;;;;;;;5032747;28;20068;-80
2023/10/26 08:56:52;;;;;;;1.20;0.90;;;;;;;;;;5032352;28;20037;-80
2023/10/26 08:59:17;;;;;;;1.45;0.88;;;;;;;;;;5035757;28;20037;-81
2023/10/26 09:01:49;;;;;;;2.10;1.10;;;;;;;;;;5033597;28;20037;-80
2023/10/26 09:04:14;;;;;;;1.55;0.88;;;;;;;;;;5031476;28;20060;-80
2023/10/26 09:06:48;;;;;;;1.27;0.82;;;;;;;;;;5031298;28;20041;-80
2023/10/26 09:09:14;;;;;;;1.20;1.20;;;;;;;;;;5029558;28;20135;-80
2023/10/26 09:11:40;;;;;;;0.90;0.90;;;;;;;;;;5031675;28;20067;-80
2023/10/26 09:14:16;;;;;;;0.75;0.75;;;;;;;;;;5033224;28;20592;-80
2023/10/26 09:16:44;;;;;;;2.20;1.10;;;;;;;;;;5028649;28;20522;-81
2023/10/26 09:19:11;;;;;;;0.90;0.70;;;;;;;;;;5045522;28;20041;-80
2023/10/26 09:21:56;;;;;;;3.55;1.20;;;;;;;;;;5043671;28;20033;-80
2023/10/26 09:24:29;;;;;;;1.33;0.80;;;;;;;;;;5043124;28;20178;-79
2023/10/26 09:26:56;;;;;;;1.05;0.55;;;;;;;;;;5041886;28;20029;-79
2023/10/26 09:29:37;;;;;;;2.13;0.80;;;;;;;;;;5045089;28;20087;-78
2023/10/26 09:32:04;;;;;;;5.38;1.10;;;;;;;;;;5042433;28;21036;-80
2023/10/26 09:34:29;;;;;;;2.78;1.50;;;;;;;;;;5049531;28;20033;-80
2023/10/26 09:36:58;;;;;;;1.38;0.73;;;;;;;;;;5044568;28;20094;-79
2023/10/26 09:39:24;;;;;;;7.03;1.05;;;;;;;;;;5038143;28;20260;-80
2023/10/26 09:41:50;;;;;;;1.00;1.00;;;;;;;;;;5044802;28;20028;-79
2023/10/26 09:44:15;;;;;;;1.63;0.68;;;;;;;;;;5040261;28;20037;-79
2023/10/26 09:46:41;;;;;;;1.08;0.80;;;;;;;;;;5038586;28;20041;-80
2023/10/26 09:49:06;;;;;;;0.70;0.70;;;;;;;;;;5038717;28;20086;-79
2023/10/26 09:51:32;;;;;;;0.75;0.75;;;;;;;;;;5040369;28;20040;-79
2023/10/26 09:54:02;;;;;;;7.07;0.80;;;;;;;;;;5037055;28;20567;-80
2023/10/26 09:56:31;;;;;;;0.80;0.80;;;;;;;;;;5041325;28;20124;-81
2023/10/26 09:58:57;;;;;;;0.60;0.60;;;;;;;;;;5040710;28;20037;-80
2023/10/26 10:01:36;;;;;;;1.38;0.93;;;;;;;;;;5036095;28;20044;-79
2023/10/26 10:04:02;;;;;;;2.25;1.00;;;;;;;;;;5044821;28;20083;-80
2023/10/26 10:06:53;;;;;;;1.00;0.93;;;;;;;;;;5033882;28;20044;-80
2023/10/26 10:09:25;;;;;;;0.70;0.70;;;;;;;;;;5035745;28;20057;-81
2023/10/26 10:12:11;;;;;;;1.73;0.90;;;;;;;;;;5034927;28;20029;-82
2023/10/26 10:14:48;;;;;;;0.90;0.90;;;;;;;;;;5034451;28;20440;-81
2023/10/26 10:17:18;;;;;;;1.83;1.00;;;;;;;;;;5034180;28;20038;-80
2023/10/26 10:19:48;;;;;;;0.90;0.90;;;;;;;;;;5035859;28;20041;-82
2023/10/26 10:22:41;;;;;;;0.73;0.73;;;;;;;;;;5034819;28;20413;-82
2023/10/26 10:25:10;;;;;;;3.08;1.08;;;;;;;;;;5033940;28;20033;-81
2023/10/26 10:27:40;;;;;;;2.03;0.75;;;;;;;;;;5033912;28;20119;-82
2023/10/26 10:30:11;;;;;;;1.08;0.93;;;;;;;;;;5034799;28;20481;-82
2023/10/26 10:32:46;;;;;;;0.80;0.80;;;;;;;;;;5034846;28;20044;-81
2023/10/26 10:35:25;;;;;;;0.80;0.80;;;;;;;;;;5034314;28;20183;-82
2023/10/26 10:38:18;;;;;;;1.00;0.90;;;;;;;;;;5034040;28;20033;-81
2023/10/26 10:40:59;;;;;;;1.10;1.00;;;;;;;;;;5038760;28;20053;-82
2023/10/26 10:43:43;;;;;;;0.90;0.90;;;;;;;;;;5037576;28;20041;-82
2023/10/26 10:46:15;;;;;;;0.70;0.70;;;;;;;;;;5036333;28;20601;-81
2023/10/26 10:48:56;;;;;;;0.95;0.90;;;;;;;;;;5035887;28;20060;-82
2023/10/26 10:51:21;;;;;;;2.80;0.65;;;;;;;;;;5035870;28;20037;-82
2023/10/26 10:53:50;;;;;;;1.00;1.00;;;;;;;;;;5037729;28;20028;-80
2023/10/26 10:56:16;;;;;;;0.60;0.60;;;;;;;;;;5034846;28;20511;-82
2023/10/26 10:58:41;;;;;;;1.02;0.75;;;;;;;;;;5035158;28;20099;-80
2023/10/26 11:01:06;;;;;;;0.80;0.80;;;;;;;;;;5036763;28;20397;-80
2023/10/26 11:03:35;;;;;;;0.82;0.82;;;;;;;;;;5036982;28;20096;-80
2023/10/26 11:06:00;;;;;;;0.60;0.60;;;;;;;;;;5035651;28;20017;-78
2023/10/26 11:08:25;;;;;;;1.00;0.80;;;;;;;;;;5036422;28;20128;-79
2023/10/26 11:10:51;;;;;;;0.82;0.80;;;;;;;;;;5035090;28;20045;-80
2023/10/26 11:13:21;;;;;;;0.85;0.77;;;;;;;;;;5034631;28;20414;-80
2023/10/26 11:15:47;;;;;;;1.10;1.02;;;;;;;;;;5035000;28;20674;-81
2023/10/26 11:18:13;;;;;;;1.25;0.90;;;;;;;;;;5034457;28;20029;-79
2023/10/26 11:20:44;;;;;;;0.52;0.52;;;;;;;;;;5036436;28;20080;-80
2023/10/26 11:23:11;;;;;;;0.80;0.80;;;;;;;;;;5035653;28;20041;-79
2023/10/26 11:25:36;;;;;;;1.02;0.90;;;;;;;;;;5033622;28;20583;-80
2023/10/26 11:28:02;;;;;;;7.35;0.88;;;;;;;;;;5033737;28;20041;-79
2023/10/26 11:30:30;;;;;;;0.70;0.70;;;;;;;;;;5033485;28;20111;-81
2023/10/26 11:32:55;;;;;;;1.00;0.80;;;;;;;;;;5034032;28;20069;-81
2023/10/26 11:35:23;;;;;;;0.60;0.60;;;;;;;;;;5034798;28;20156;-80
2023/10/26 11:37:53;;;;;;;0.50;0.50;;;;;;;;;;5033471;28;20076;-81
2023/10/26 11:40:28;;;;;;;0.85;0.80;;;;;;;;;;5033441;28;20125;-80
2023/10/26 11:43:00;;;;;;;0.47;0.47;;;;;;;;;;5004627;28;20065;-79
2023/10/26 11:45:27;;;;;;;1.10;0.60;;;;;;;;;;4998592;28;20466;-79
2023/10/26 11:47:55;;;;;;;0.65;0.65;;;;;;;;;;5003804;28;20052;-77
2023/10/26 11:50:23;;;;;;;0.60;0.60;;;;;;;;;;4998116;28;20041;-80
2023/10/26 11:52:49;;;;;;;0.52;0.52;;;;;;;;;;5022856;28;20065;-78
2023/10/26 11:55:15;;;;;;;0.40;0.40;;;;;;;;;;5014274;28;20088;-77
2023/10/26 11:57:41;;;;;;;0.60;0.60;;;;;;;;;;5025079;28;20048;-80
2023/10/26 12:00:08;;;;;;;2.38;0.63;;;;;;;;;;5012376;28;20030;-78
2023/10/26 12:02:34;;;;;;;0.60;0.60;;;;;;;;;;5025748;28;20077;-78
2023/10/26 12:04:59;;;;;;;0.68;0.68;;;;;;;;;;5025037;28;20116;-80
2023/10/26 12:07:25;;;;;;;1.05;0.63;;;;;;;;;;5023911;28;20144;-80
2023/10/26 12:09:50;;;;;;;1.70;0.60;;;;;;;;;;5024139;28;20109;-79
2023/10/26 12:12:16;;;;;;;1.00;0.63;;;;;;;;;;5023637;28;20041;-80
2023/10/26 12:14:43;;;;;;;0.60;0.60;;;;;;;;;;5025194;28;20025;-79
2023/10/26 12:17:08;;;;;;;2.50;0.38;;;;;;;;;;5023887;28;20042;-80
2023/10/26 12:19:34;;;;;;;0.40;0.40;;;;;;;;;;5023773;28;20092;-77
2023/10/26 12:21:59;;;;;;;0.80;0.60;;;;;;;;;;5024497;28;20033;-81
2023/10/26 12:24:24;;;;;;;0.50;0.50;;;;;;;;;;5023363;28;20381;-79
2023/10/26 12:26:57;;;;;;;0.73;0.63;;;;;;;;;;5026105;28;20356;-80
2023/10/26 12:29:23;;;;;;;0.55;0.55;;;;;;;;;;5024454;28;20033;-80
2023/10/26 12:31:48;;;;;;;4.30;0.82;;;;;;;;;;5025152;28;20034;-80
2023/10/26 12:34:14;;;;;;;2.70;0.90;;;;;;;;;;5024805;28;20128;-80
2023/10/26 12:36:39;;;;;;;0.82;0.70;;;;;;;;;;5024064;28;20045;-79
2023/10/26 12:39:04;;;;;;;1.60;1.17;;;;;;;;;;5024237;28;20071;-77
2023/10/26 12:41:30;;;;;;;0.90;0.90;;;;;;;;;;5025651;28;20045;-80
2023/10/26 12:43:55;;;;;;;7.40;4.68;;;;;;;;;;5024174;28;20344;-77
2023/10/26 12:46:20;;;;;;;6.63;4.78;;;;;;;;;;5025313;28;20076;-79
2023/10/26 12:48:45;;;;;;;2.58;2.33;;;;;;;;;;5024907;28;20060;-79
2023/10/26 12:51:11;;;;;;;2.40;1.25;;;;;;;;;;5026635;28;20029;-79
2023/10/26 12:53:36;;;;;;;2.17;1.08;;;;;;;;;;5027876;28;20025;-80
2023/10/26 12:56:02;;;;;;;2.67;0.88;;;;;;;;;;5026177;28;20041;-76
2023/10/26 12:58:28;;;;;;;12.25;1.10;;;;;;;;;;5025415;28;20143;-80
2023/10/26 13:00:53;;;;;;;2.38;0.95;;;;;;;;;;5024428;28;20061;-77
2023/10/26 13:03:19;;;;;;;4.30;1.48;;;;;;;;;;5022654;28;20026;-78
2023/10/26 13:05:44;;;;;;;5.65;1.33;;;;;;;;;;5023506;28;20149;-79
2023/10/26 13:08:11;;;;;;;4.88;0.93;;;;;;;;;;5023585;28;20046;-80
2023/10/26 13:10:36;;;;;;;2.88;1.20;;;;;;;;;;5022948;28;20245;-79
2023/10/26 13:13:01;;;;;;;2.00;1.20;;;;;;;;;;5023315;28;20033;-78
2023/10/26 13:15:27;;;;;;;2.47;0.93;;;;;;;;;;5025534;28;20030;-79
2023/10/26 13:17:52;;;;;;;3.50;1.00;;;;;;;;;;5023848;28;20028;-77
2023/10/26 13:20:17;;;;;;;5.93;1.48;;;;;;;;;;5023749;28;20120;-80
2023/10/26 13:22:43;;;;;;;1.77;1.13;;;;;;;;;;5023933;28;20925;-78
2023/10/26 13:25:08;;;;;;;2.40;1.00;;;;;;;;;;5024972;28;20084;-81
2023/10/26 13:27:33;;;;;;;6.75;1.15;;;;;;;;;;5023353;28;20099;-80
2023/10/26 13:29:58;;;;;;;4.78;1.17;;;;;;;;;;5029670;28;20024;-81
2023/10/26 13:32:24;;;;;;;2.97;1.30;;;;;;;;;;5032818;28;20171;-81
2023/10/26 13:34:49;;;;;;;2.22;1.08;;;;;;;;;;5030159;28;20041;-79
2023/10/26 13:37:14;;;;;;;6.70;1.27;;;;;;;;;;5031269;28;20136;-82
2023/10/26 13:39:40;;;;;;;4.70;1.40;;;;;;;;;;5030824;28;20053;-79
2023/10/26 13:42:05;;;;;;;4.07;1.20;;;;;;;;;;5030431;28;20044;-82
2023/10/26 13:44:30;;;;;;;3.25;1.13;;;;;;;;;;5029545;28;20033;-82
2023/10/26 13:46:56;;;;;;;2.97;1.10;;;;;;;;;;5028876;28;20509;-81
2023/10/26 13:49:21;;;;;;;2.65;1.00;;;;;;;;;;5029632;28;20037;-81
2023/10/26 13:51:47;;;;;;;2.95;0.90;;;;;;;;;;5030684;28;20025;-79
2023/10/26 13:54:12;;;;;;;2.03;1.10;;;;;;;;;;5026485;28;20027;-79
2023/10/26 13:56:38;;;;;;;4.47;1.15;;;;;;;;;;5026528;28;20021;-78
2023/10/26 13:59:03;;;;;;;4.15;1.25;;;;;;;;;;5025045;28;20091;-81
2023/10/26 14:01:28;;;;;;;4.07;0.95;;;;;;;;;;5023759;28;20375;-78
2023/10/26 14:03:54;;;;;;;2.45;0.85;;;;;;;;;;5006726;28;20033;-81
2023/10/26 14:06:23;;;;;;;5.75;1.40;;;;;;;;;;5003504;28;20396;-80
2023/10/26 14:08:48;;;;;;;2.33;0.98;;;;;;;;;;5000485;28;20403;-79
2023/10/26 14:11:15;;;;;;;3.65;1.38;;;;;;;;;;4997059;28;20642;-81
2023/10/26 14:13:42;;;;;;;2.75;0.93;;;;;;;;;;4998763;28;20041;-79
2023/10/26 14:16:10;;;;;;;2.47;1.17;;;;;;;;;;5008444;28;20072;-79
2023/10/26 14:18:35;;;;;;;9.02;1.10;;;;;;;;;;5032476;28;20425;-80
2023/10/26 14:21:00;;;;;;;4.63;1.30;;;;;;;;;;5039131;28;20114;-79
2023/10/26 14:23:26;;;;;;;5.32;1.10;;;;;;;;;;5029483;28;20246;-78
2023/10/26 14:25:51;;;;;;;4.82;1.27;;;;;;;;;;5027093;28;20057;-80
2023/10/26 14:28:16;;;;;;;2.00;1.38;;;;;;;;;;5026581;28;20532;-80
2023/10/26 14:30:41;;;;;;;5.03;1.33;;;;;;;;;;5026852;28;20440;-81
2023/10/26 14:33:07;;;;;;;3.90;1.65;;;;;;;;;;5034137;28;20030;-80
2023/10/26 14:35:32;;;;;;;2.85;1.17;;;;;;;;;;5037564;28;20533;-78
2023/10/26 14:37:59;;;;;;;2.20;1.33;;;;;;;;;;5037618;28;20348;-81
2023/10/26 14:40:25;;;;;;;3.45;1.23;;;;;;;;;;5037404;28;20034;-79